Terminal Aerodrome Forecast
Issued by NWS

Home | Current Version | Previous Version | Text Only | Print | Product List | Glossary On
Versions: 1 2 3 4 5 6 7 8 9 10 11 12 13
044
FTUS42 TJSJ 022342
TAFJBQ
TAF
TJBQ 022342Z 0300/0324 11005KT P6SM SKC
     FM031300 08013KT P6SM FEW030 SCT050
     FM031630 08013KT P6SM SCT030 SCT050
     FM032300 11005KT P6SM SKC
      AMD NOT SKED 0302/0311=

USA.gov is the U.S. government's official web portal to all federal, state and local government web resources and services.